createdAt,value
2018-07-26T00:00:13.789Z,9.60
2018-07-26T00:02:42.304Z,10.53
2018-07-26T00:05:10.579Z,9.77
2018-07-26T00:07:38.916Z,9.50
2018-07-26T00:10:08.794Z,10.20
2018-07-26T00:12:37.109Z,9.90
2018-07-26T00:15:05.718Z,9.53
2018-07-26T00:17:34.015Z,10.10
2018-07-26T00:20:02.414Z,9.03
2018-07-26T00:22:30.804Z,9.80
2018-07-26T00:24:59.109Z,9.37
2018-07-26T00:27:27.420Z,9.67
2018-07-26T00:29:55.720Z,8.97
2018-07-26T00:32:23.742Z,9.90
2018-07-26T00:34:52.128Z,9.33
2018-07-26T00:37:20.475Z,9.30
2018-07-26T00:39:48.801Z,10.00
2018-07-26T00:42:17.499Z,12.90
2018-07-26T00:44:45.827Z,10.17
2018-07-26T00:47:14.141Z,10.20
2018-07-26T00:49:42.405Z,10.53
2018-07-26T00:52:10.759Z,9.77
2018-07-26T00:54:39.374Z,10.27
2018-07-26T00:57:07.723Z,10.60
2018-07-26T00:59:36.070Z,10.60
2018-07-26T01:02:04.408Z,11.00
2018-07-26T01:04:32.725Z,9.97
2018-07-26T01:07:00.741Z,11.13
2018-07-26T01:09:29.109Z,10.90
2018-07-26T01:11:57.417Z,10.77
2018-07-26T01:14:25.940Z,11.90
2018-07-26T01:16:54.261Z,11.63
2018-07-26T01:19:22.524Z,11.27
2018-07-26T01:21:50.965Z,11.13
2018-07-26T01:24:18.992Z,10.60
2018-07-26T01:26:47.428Z,11.33
2018-07-26T01:29:15.794Z,11.83
2018-07-26T01:31:44.096Z,11.87
2018-07-26T01:34:12.469Z,12.07
2018-07-26T01:36:40.880Z,13.30
2018-07-26T01:39:09.436Z,12.87
2018-07-26T01:41:37.748Z,13.57
2018-07-26T01:44:14.730Z,12.47
2018-07-26T01:46:43.008Z,14.10
2018-07-26T01:49:11.265Z,13.07
2018-07-26T01:51:39.543Z,11.80
2018-07-26T01:54:08.338Z,12.07
2018-07-26T01:56:36.737Z,13.27
2018-07-26T01:59:05.101Z,12.73
2018-07-26T02:01:33.577Z,14.13
2018-07-26T02:04:01.950Z,13.63
2018-07-26T02:06:30.255Z,14.63
2018-07-26T02:08:58.612Z,13.57
2018-07-26T02:11:27.027Z,15.03
2018-07-26T02:13:55.072Z,16.30
2018-07-26T02:16:25.549Z,14.63
2018-07-26T02:18:53.981Z,14.47
2018-07-26T02:21:22.564Z,14.93
2018-07-26T02:23:50.939Z,13.93
2018-07-26T02:26:19.318Z,13.27
2018-07-26T02:28:47.671Z,13.70
2018-07-26T02:31:16.042Z,13.03
2018-07-26T02:33:44.340Z,12.47
2018-07-26T02:36:13.714Z,12.37
2018-07-26T02:38:42.087Z,12.07
2018-07-26T02:41:10.440Z,12.43
2018-07-26T02:43:38.880Z,12.30
2018-07-26T02:46:07.271Z,12.83
2018-07-26T02:48:35.685Z,11.87
2018-07-26T02:51:04.200Z,12.10
2018-07-26T02:53:33.074Z,10.90
2018-07-26T02:56:01.147Z,12.40
2018-07-26T02:58:29.470Z,13.43
2018-07-26T03:00:57.761Z,12.30
2018-07-26T03:03:26.157Z,11.77
2018-07-26T03:05:54.506Z,10.83
2018-07-26T03:08:22.777Z,11.97
2018-07-26T03:10:51.010Z,11.10
2018-07-26T03:13:19.063Z,12.07
2018-07-26T03:15:47.475Z,12.13
2018-07-26T03:18:15.744Z,13.13
2018-07-26T03:20:43.955Z,13.03
2018-07-26T03:23:12.190Z,13.27
2018-07-26T03:25:40.372Z,13.20
2018-07-26T03:28:08.661Z,12.53
2018-07-26T03:30:36.887Z,13.20
2018-07-26T03:33:05.195Z,13.70
2018-07-26T03:35:33.402Z,13.47
2018-07-26T03:38:01.626Z,13.63
2018-07-26T03:40:30.028Z,13.87
2018-07-26T03:42:58.245Z,15.93
2018-07-26T03:45:26.456Z,14.57
2018-07-26T03:47:54.410Z,14.33
2018-07-26T03:50:22.618Z,13.23
2018-07-26T03:52:50.879Z,14.37
2018-07-26T03:55:19.001Z,12.77
2018-07-26T03:57:47.236Z,13.37
2018-07-26T04:00:15.157Z,12.37
2018-07-26T04:02:43.355Z,12.73
2018-07-26T04:05:11.544Z,11.60
2018-07-26T04:07:39.753Z,11.20
2018-07-26T04:10:07.924Z,11.00
2018-07-26T04:12:36.116Z,10.70
2018-07-26T04:15:05.364Z,10.83
2018-07-26T04:17:33.387Z,10.23
2018-07-26T04:20:01.607Z,9.63
2018-07-26T04:22:29.752Z,10.43
2018-07-26T04:24:57.979Z,10.40
2018-07-26T04:27:26.757Z,9.70
2018-07-26T04:29:54.934Z,9.47
2018-07-26T04:32:23.129Z,9.37
2018-07-26T04:34:51.309Z,9.60
2018-07-26T04:37:19.485Z,9.10
2018-07-26T04:39:47.819Z,9.73
2018-07-26T04:42:16.028Z,9.00
2018-07-26T04:44:44.216Z,9.47
2018-07-26T04:47:12.408Z,9.17
2018-07-26T04:49:40.643Z,9.10
2018-07-26T04:52:08.845Z,9.80
2018-07-26T04:54:37.072Z,8.50
2018-07-26T04:57:05.374Z,8.90
2018-07-26T04:59:33.661Z,9.37
2018-07-26T05:02:01.906Z,14.23
2018-07-26T05:04:30.081Z,12.27
2018-07-26T05:06:58.269Z,9.27
2018-07-26T05:09:26.452Z,9.10
2018-07-26T05:11:55.296Z,9.20
2018-07-26T05:14:23.519Z,11.20
2018-07-26T05:16:51.658Z,8.60
2018-07-26T05:19:19.789Z,9.10
2018-07-26T05:21:47.941Z,9.47
2018-07-26T05:24:16.149Z,8.73
2018-07-26T05:26:44.334Z,8.70
2018-07-26T05:29:12.545Z,8.37
2018-07-26T05:31:40.741Z,8.57
2018-07-26T05:34:08.965Z,9.03
2018-07-26T05:36:37.132Z,8.53
2018-07-26T05:39:08.500Z,8.33
2018-07-26T05:41:36.793Z,8.07
2018-07-26T05:44:05.049Z,7.67
2018-07-26T05:46:33.822Z,7.87
2018-07-26T05:49:02.931Z,7.50
2018-07-26T05:51:31.234Z,7.97
2018-07-26T05:53:59.527Z,7.90
2018-07-26T05:56:27.772Z,8.30
2018-07-26T05:58:55.987Z,8.40
2018-07-26T06:01:24.242Z,8.10
2018-07-26T06:03:52.691Z,8.00
2018-07-26T06:06:20.866Z,8.17
2018-07-26T06:08:49.042Z,7.60
2018-07-26T06:11:17.254Z,7.77
2018-07-26T06:13:45.428Z,6.67
2018-07-26T06:16:13.617Z,6.87
2018-07-26T06:18:41.818Z,6.80
2018-07-26T06:21:09.998Z,6.20
2018-07-26T06:23:38.206Z,7.00
2018-07-26T06:26:06.403Z,6.23
2018-07-26T06:28:34.588Z,5.60
2018-07-26T06:31:02.809Z,5.70
2018-07-26T06:33:31.063Z,5.80
2018-07-26T06:35:59.180Z,5.97
2018-07-26T06:38:27.135Z,5.83
2018-07-26T06:40:55.405Z,6.10
2018-07-26T06:43:23.609Z,5.67
2018-07-26T06:45:51.793Z,6.20
2018-07-26T06:48:19.966Z,5.60
2018-07-26T06:50:48.324Z,5.70
2018-07-26T06:53:16.263Z,6.27
2018-07-26T06:55:44.444Z,5.77
2018-07-26T06:58:12.624Z,5.60
2018-07-26T07:00:40.826Z,5.83
2018-07-26T07:03:08.777Z,5.07
2018-07-26T07:05:36.679Z,5.80
2018-07-26T07:08:04.901Z,5.53
2018-07-26T07:10:33.096Z,5.53
2018-07-26T07:13:01.284Z,5.97
2018-07-26T07:15:29.459Z,5.23
2018-07-26T07:17:57.670Z,4.80
2018-07-26T07:20:25.861Z,4.50
2018-07-26T07:22:54.059Z,4.67
2018-07-26T07:25:22.235Z,4.27
2018-07-26T07:27:50.480Z,4.60
2018-07-26T07:30:18.594Z,5.20
2018-07-26T07:32:46.523Z,5.63
2018-07-26T07:35:14.714Z,5.03
2018-07-26T07:37:42.896Z,4.90
2018-07-26T07:40:11.096Z,5.23
2018-07-26T07:42:39.482Z,5.17
2018-07-26T07:45:08.145Z,4.90
2018-07-26T07:47:36.335Z,5.07
2018-07-26T07:50:04.426Z,6.20
2018-07-26T07:52:32.618Z,4.93
2018-07-26T07:55:00.781Z,4.87
2018-07-26T07:57:28.911Z,4.50
2018-07-26T07:59:57.132Z,5.07
2018-07-26T08:02:25.218Z,5.00
2018-07-26T08:04:53.409Z,5.63
2018-07-26T08:07:21.740Z,4.90
2018-07-26T08:09:49.889Z,4.87
2018-07-26T08:12:17.800Z,5.77
2018-07-26T08:14:45.972Z,5.00
2018-07-26T08:17:14.265Z,10.67
2018-07-26T08:19:42.461Z,4.93
2018-07-26T08:22:10.649Z,5.07
2018-07-26T08:24:38.841Z,5.13
2018-07-26T08:27:06.998Z,4.97
2018-07-26T08:29:35.201Z,4.40
2018-07-26T08:32:03.380Z,5.23
2018-07-26T08:34:31.622Z,4.60
2018-07-26T08:36:59.825Z,5.83
2018-07-26T08:39:28.029Z,4.80
2018-07-26T08:41:56.221Z,4.67
2018-07-26T08:44:24.424Z,5.20
2018-07-26T08:46:52.580Z,4.80
2018-07-26T08:49:20.760Z,4.57
2018-07-26T08:51:49.001Z,4.13
2018-07-26T08:54:17.240Z,4.17
2018-07-26T08:56:45.337Z,3.73
2018-07-26T08:59:13.560Z,3.67
2018-07-26T09:01:41.767Z,3.73
2018-07-26T09:04:09.945Z,3.87
2018-07-26T09:06:38.063Z,3.80
2018-07-26T09:09:08.984Z,3.93
2018-07-26T09:11:37.150Z,3.70
2018-07-26T09:14:05.350Z,3.40
2018-07-26T09:16:33.584Z,3.83
2018-07-26T09:19:01.798Z,3.50
2018-07-26T09:21:30.400Z,3.60
2018-07-26T09:23:58.744Z,4.00
2018-07-26T09:26:27.025Z,3.30
2018-07-26T09:28:55.410Z,3.53
2018-07-26T09:31:23.681Z,3.30
2018-07-26T09:33:52.036Z,3.57
2018-07-26T09:36:20.350Z,3.23
2018-07-26T09:38:48.761Z,3.87
2018-07-26T09:41:16.870Z,3.63
2018-07-26T09:43:45.215Z,3.60
2018-07-26T09:46:13.555Z,3.87
2018-07-26T09:48:41.965Z,3.90
2018-07-26T09:51:10.281Z,3.77
2018-07-26T09:53:38.709Z,3.70
2018-07-26T09:56:06.992Z,3.47
2018-07-26T09:58:35.199Z,3.17
2018-07-26T10:01:08.830Z,3.90
2018-07-26T10:03:36.981Z,3.30
2018-07-26T10:06:05.303Z,2.97
2018-07-26T10:08:33.570Z,3.90
2018-07-26T10:11:01.729Z,3.57
2018-07-26T10:13:29.869Z,3.30
2018-07-26T10:15:58.150Z,3.00
2018-07-26T10:18:26.240Z,3.70
2018-07-26T10:20:54.408Z,3.23
2018-07-26T10:23:22.544Z,3.40
2018-07-26T10:25:50.715Z,3.37
2018-07-26T10:28:18.861Z,3.17
2018-07-26T10:30:47.052Z,3.80
2018-07-26T10:33:15.213Z,3.50
2018-07-26T10:35:43.429Z,3.50
2018-07-26T10:38:11.391Z,2.80
2018-07-26T10:40:39.565Z,3.13
2018-07-26T10:43:07.733Z,3.00
2018-07-26T10:45:36.439Z,3.07
2018-07-26T10:48:04.645Z,3.00
2018-07-26T10:50:32.903Z,3.00
2018-07-26T10:53:01.102Z,3.00
2018-07-26T10:55:29.296Z,3.10
2018-07-26T10:57:57.609Z,3.57
2018-07-26T11:00:25.846Z,3.60
2018-07-26T11:02:54.026Z,3.20
2018-07-26T11:05:22.220Z,3.37
2018-07-26T11:07:50.397Z,3.33
2018-07-26T11:10:18.597Z,3.03
2018-07-26T11:12:46.906Z,3.57
2018-07-26T11:15:21.526Z,3.17
2018-07-26T11:17:49.435Z,3.40
2018-07-26T11:20:17.776Z,3.37
2018-07-26T11:22:46.041Z,3.03
2018-07-26T11:25:14.233Z,2.93
2018-07-26T11:27:42.421Z,3.33
2018-07-26T11:30:10.644Z,3.30
2018-07-26T11:32:38.773Z,3.20
2018-07-26T11:35:06.971Z,3.40
2018-07-26T11:37:35.246Z,2.80
2018-07-26T11:40:03.958Z,3.43
2018-07-26T11:42:32.222Z,3.10
2018-07-26T11:45:00.414Z,3.10
2018-07-26T11:47:28.605Z,3.07
2018-07-26T11:49:56.811Z,3.00
2018-07-26T11:52:24.998Z,3.23
2018-07-26T11:54:53.242Z,3.30
2018-07-26T11:57:21.416Z,3.00
2018-07-26T11:59:49.620Z,2.97
2018-07-26T12:02:17.879Z,3.47
2018-07-26T12:04:46.033Z,3.50
2018-07-26T12:09:48.834Z,3.03
2018-07-26T12:12:17.037Z,2.80
2018-07-26T12:14:45.306Z,3.43
2018-07-26T12:17:13.552Z,3.20
2018-07-26T12:19:41.786Z,3.10
2018-07-26T12:22:10.022Z,3.27
2018-07-26T12:24:38.192Z,3.10
2018-07-26T12:27:06.517Z,2.90
2018-07-26T12:29:34.737Z,2.80
2018-07-26T12:32:02.995Z,2.80
2018-07-26T12:34:31.203Z,3.10
2018-07-26T12:36:59.396Z,2.90
2018-07-26T12:39:27.574Z,3.23
2018-07-26T12:41:55.744Z,3.33
2018-07-26T12:44:23.935Z,3.20
2018-07-26T12:46:51.888Z,3.33
2018-07-26T12:49:20.213Z,3.77
2018-07-26T12:51:48.438Z,3.90
2018-07-26T12:54:16.653Z,4.00
2018-07-26T12:56:44.900Z,3.57
2018-07-26T12:59:13.104Z,4.00
2018-07-26T13:01:41.335Z,4.53
2018-07-26T13:04:09.576Z,4.07
2018-07-26T13:06:37.783Z,3.93
2018-07-26T13:09:07.693Z,4.20
2018-07-26T13:11:35.930Z,4.30
2018-07-26T13:14:05.231Z,3.93
2018-07-26T13:16:33.453Z,3.67
2018-07-26T13:19:01.822Z,3.43
2018-07-26T13:21:30.064Z,3.73
2018-07-26T13:23:58.248Z,3.80
2018-07-26T13:26:26.465Z,3.07
2018-07-26T13:28:54.644Z,3.80
2018-07-26T13:31:22.949Z,3.50
2018-07-26T13:33:51.166Z,3.60
2018-07-26T13:36:19.353Z,3.60
2018-07-26T13:38:47.524Z,3.77
2018-07-26T13:41:15.676Z,3.70
2018-07-26T13:43:43.828Z,3.73
2018-07-26T13:46:12.051Z,3.77
2018-07-26T13:48:40.284Z,3.77
2018-07-26T13:51:08.566Z,3.57
2018-07-26T13:53:36.832Z,3.17
2018-07-26T13:56:05.283Z,3.33
2018-07-26T13:58:33.751Z,3.30
2018-07-26T14:01:01.942Z,3.30
2018-07-26T14:03:30.199Z,3.43
2018-07-26T14:05:58.474Z,3.57
2018-07-26T14:08:26.767Z,3.37
2018-07-26T14:10:54.726Z,3.53
2018-07-26T14:13:23.046Z,3.20
2018-07-26T14:15:51.360Z,3.03
2018-07-26T14:18:19.625Z,3.23
2018-07-26T14:20:47.887Z,3.13
2018-07-26T14:23:21.609Z,3.67
2018-07-26T14:25:50.013Z,3.27
2018-07-26T14:28:18.288Z,3.50
2018-07-26T14:30:46.492Z,3.73
2018-07-26T14:33:14.825Z,3.80
2018-07-26T14:35:43.190Z,2.93
2018-07-26T14:38:11.656Z,3.10
2018-07-26T14:40:40.030Z,2.77
2018-07-26T14:43:08.365Z,3.10
2018-07-26T14:45:36.627Z,3.07
2018-07-26T14:48:05.078Z,2.77
2018-07-26T14:50:33.420Z,2.80
2018-07-26T14:53:01.744Z,2.83
2018-07-26T14:55:30.040Z,2.47
2018-07-26T14:57:58.294Z,2.60
2018-07-26T15:00:26.543Z,2.80
2018-07-26T15:02:54.852Z,2.20
2018-07-26T15:05:23.138Z,2.00
2018-07-26T15:07:51.504Z,2.10
2018-07-26T15:10:19.802Z,2.00
2018-07-26T15:12:48.069Z,1.83
2018-07-26T15:15:16.395Z,2.23
2018-07-26T15:17:44.746Z,1.97
2018-07-26T15:20:13.089Z,2.13
2018-07-26T15:22:41.440Z,1.90
2018-07-26T15:25:09.782Z,2.10
2018-07-26T15:27:38.041Z,1.90
2018-07-26T15:30:06.589Z,2.10
2018-07-26T15:32:34.956Z,1.70
2018-07-26T15:35:03.328Z,2.07
2018-07-26T15:37:31.789Z,2.03
2018-07-26T15:40:00.058Z,2.30
2018-07-26T15:42:28.430Z,2.00
2018-07-26T15:44:56.837Z,1.87
2018-07-26T15:47:25.085Z,1.80
2018-07-26T15:49:53.461Z,2.07
2018-07-26T15:55:46.188Z,1.73
2018-07-26T15:58:14.390Z,2.13
2018-07-26T16:00:42.566Z,2.27
2018-07-26T16:03:10.725Z,2.80
2018-07-26T16:05:38.905Z,2.53
2018-07-26T16:08:06.845Z,2.80
2018-07-26T16:10:35.003Z,4.23
2018-07-26T16:13:03.197Z,3.30
2018-07-26T16:15:31.390Z,5.10
2018-07-26T16:17:59.507Z,3.00
2018-07-26T16:20:27.498Z,2.50
2018-07-26T16:22:55.683Z,2.70
2018-07-26T16:25:24.278Z,2.40
2018-07-26T16:27:53.193Z,2.50
2018-07-26T16:30:21.401Z,1.90
2018-07-26T16:32:49.626Z,2.17
2018-07-26T16:35:17.802Z,2.17
2018-07-26T16:37:46.001Z,2.10
2018-07-26T16:40:14.211Z,2.10
2018-07-26T16:42:42.386Z,2.03
2018-07-26T16:45:10.599Z,2.70
2018-07-26T16:47:38.534Z,9.13
2018-07-26T16:50:06.740Z,11.77
2018-07-26T16:52:34.724Z,5.40
2018-07-26T16:55:02.901Z,7.87
2018-07-26T16:57:30.832Z,9.90
2018-07-26T16:59:59.024Z,12.60
2018-07-26T17:02:26.993Z,6.47
2018-07-26T17:04:54.911Z,3.00
2018-07-26T17:07:23.121Z,4.47
2018-07-26T17:09:51.316Z,2.70
2018-07-26T17:12:19.230Z,2.50
2018-07-26T17:14:47.452Z,2.93
2018-07-26T17:17:15.372Z,3.47
2018-07-26T17:19:43.563Z,2.70
2018-07-26T17:22:11.737Z,2.73
2018-07-26T17:24:39.937Z,3.00
2018-07-26T17:27:08.117Z,2.80
2018-07-26T17:29:36.028Z,2.70
2018-07-26T17:32:04.241Z,2.80
2018-07-26T17:34:32.513Z,2.77
2018-07-26T17:37:00.703Z,2.50
2018-07-26T17:39:29.074Z,2.50
2018-07-26T17:41:57.297Z,3.10
2018-07-26T17:44:25.547Z,2.60
2018-07-26T17:46:53.726Z,2.60
2018-07-26T17:49:22.058Z,2.50
2018-07-26T17:51:50.232Z,2.80
2018-07-26T17:54:18.577Z,2.40
2018-07-26T17:56:46.837Z,3.07
2018-07-26T17:59:14.961Z,2.63
2018-07-26T18:01:43.133Z,2.43
2018-07-26T18:04:11.323Z,2.80
2018-07-26T18:06:39.541Z,3.73
2018-07-26T18:09:08.321Z,3.07
2018-07-26T18:11:36.508Z,2.93
2018-07-26T18:14:04.686Z,3.10
2018-07-26T18:16:32.913Z,3.40
2018-07-26T18:19:01.088Z,2.83
2018-07-26T18:21:29.261Z,2.87
2018-07-26T18:23:57.485Z,2.90
2018-07-26T18:26:25.638Z,3.00
2018-07-26T18:28:53.830Z,2.83
2018-07-26T18:31:22.078Z,2.77
2018-07-26T18:33:50.185Z,3.10
2018-07-26T18:36:18.369Z,2.90
2018-07-26T18:38:46.573Z,4.20
2018-07-26T18:41:14.746Z,3.43
2018-07-26T18:43:42.963Z,3.33
2018-07-26T18:46:11.122Z,3.23
2018-07-26T18:48:39.305Z,3.80
2018-07-26T18:51:07.479Z,3.40
2018-07-26T18:53:35.652Z,3.90
2018-07-26T18:56:03.866Z,3.93
2018-07-26T18:58:32.052Z,3.73
2018-07-26T19:01:00.248Z,4.20
2018-07-26T19:03:28.456Z,3.60
2018-07-26T19:05:56.610Z,2.90
2018-07-26T19:08:25.135Z,2.73
2018-07-26T19:10:53.336Z,3.03
2018-07-26T19:13:21.570Z,3.50
2018-07-26T19:15:49.729Z,3.20
2018-07-26T19:18:17.926Z,3.80
2018-07-26T19:20:46.078Z,3.80
2018-07-26T19:23:14.049Z,3.40
2018-07-26T19:25:42.271Z,4.60
2018-07-26T19:28:10.446Z,3.90
2018-07-26T19:30:38.620Z,6.87
2018-07-26T19:33:06.854Z,5.37
2018-07-26T19:35:35.027Z,5.20
2018-07-26T19:38:03.375Z,4.97
2018-07-26T19:40:31.525Z,4.00
2018-07-26T19:42:59.718Z,3.30
2018-07-26T19:45:27.913Z,3.97
2018-07-26T19:47:56.062Z,6.07
2018-07-26T19:50:24.205Z,4.30
2018-07-26T19:52:52.392Z,4.50
2018-07-26T19:55:20.590Z,4.17
2018-07-26T19:57:48.755Z,6.30
2018-07-26T20:00:16.945Z,4.90
2018-07-26T20:02:45.194Z,5.50
2018-07-26T20:05:13.390Z,9.37
2018-07-26T20:07:41.541Z,3.67
2018-07-26T20:10:11.509Z,4.20
2018-07-26T20:12:40.092Z,8.93
2018-07-26T20:15:08.442Z,6.40
2018-07-26T20:17:36.627Z,4.73
2018-07-26T20:20:07.243Z,3.80
2018-07-26T20:22:35.435Z,4.87
2018-07-26T20:25:03.674Z,4.20
2018-07-26T20:27:31.850Z,4.07
2018-07-26T20:30:00.081Z,3.73
2018-07-26T20:32:28.314Z,3.27
2018-07-26T20:34:56.592Z,5.97
2018-07-26T20:37:24.772Z,5.40
2018-07-26T20:39:52.940Z,5.13
2018-07-26T20:42:21.106Z,4.60
2018-07-26T20:44:49.299Z,4.50
2018-07-26T20:47:17.494Z,5.60
2018-07-26T20:49:45.657Z,4.40
2018-07-26T20:52:13.828Z,5.20
2018-07-26T20:54:42.013Z,4.80
2018-07-26T20:57:09.949Z,5.10
2018-07-26T20:59:38.213Z,5.13
2018-07-26T21:02:06.391Z,6.57
2018-07-26T21:04:34.581Z,5.10
2018-07-26T21:07:02.758Z,4.10
2018-07-26T21:09:30.912Z,4.57
2018-07-26T21:11:59.094Z,4.60
2018-07-26T21:14:27.264Z,4.90
2018-07-26T21:16:55.445Z,4.10
2018-07-26T21:19:23.632Z,4.97
2018-07-26T21:21:51.812Z,5.30
2018-07-26T21:24:19.994Z,5.43
2018-07-26T21:26:48.154Z,4.63
2018-07-26T21:29:16.328Z,5.13
2018-07-26T21:31:44.549Z,9.50
2018-07-26T21:34:12.846Z,5.00
2018-07-26T21:36:41.050Z,6.03
2018-07-26T21:39:10.369Z,6.43
2018-07-26T21:41:38.355Z,6.77
2018-07-26T21:44:06.578Z,7.60
2018-07-26T21:46:34.775Z,5.17
2018-07-26T21:49:02.961Z,4.10
2018-07-26T21:51:31.137Z,5.13
2018-07-26T21:53:59.309Z,5.10
2018-07-26T21:56:27.491Z,5.70
2018-07-26T21:58:55.715Z,5.20
2018-07-26T22:01:23.994Z,6.60
2018-07-26T22:03:52.199Z,6.37
2018-07-26T22:06:20.435Z,6.00
2018-07-26T22:08:48.688Z,6.30
2018-07-26T22:11:16.857Z,7.40
2018-07-26T22:13:45.081Z,5.90
2018-07-26T22:16:13.321Z,6.03
2018-07-26T22:18:41.462Z,4.03
2018-07-26T22:21:09.632Z,4.47
2018-07-26T22:23:37.828Z,5.90
2018-07-26T22:26:06.000Z,5.40
2018-07-26T22:28:34.868Z,6.07
2018-07-26T22:31:03.028Z,5.17
2018-07-26T22:33:31.291Z,15.73
2018-07-26T22:35:59.473Z,8.57
2018-07-26T22:38:27.655Z,5.50
2018-07-26T22:40:55.808Z,4.77
2018-07-26T22:43:23.999Z,4.90
2018-07-26T22:45:52.194Z,9.43
2018-07-26T22:48:20.413Z,5.60
2018-07-26T22:50:48.623Z,7.73
2018-07-26T22:53:16.782Z,5.60
2018-07-26T22:55:44.962Z,5.50
2018-07-26T22:58:13.125Z,4.90
2018-07-26T23:00:41.312Z,4.83
2018-07-26T23:03:09.491Z,4.93
2018-07-26T23:05:37.647Z,6.17
2018-07-26T23:08:06.159Z,5.07
2018-07-26T23:10:34.312Z,4.90
2018-07-26T23:13:02.468Z,5.40
2018-07-26T23:15:30.611Z,4.93
2018-07-26T23:17:58.773Z,5.47
2018-07-26T23:20:26.718Z,5.47
2018-07-26T23:22:55.828Z,5.10
2018-07-26T23:25:24.026Z,4.37
2018-07-26T23:27:52.215Z,5.30
2018-07-26T23:30:20.359Z,5.37
2018-07-26T23:32:48.264Z,5.07
2018-07-26T23:35:17.242Z,4.77
2018-07-26T23:37:45.376Z,5.23
2018-07-26T23:40:13.521Z,5.23
2018-07-26T23:42:41.689Z,5.00
2018-07-26T23:45:09.869Z,5.80
2018-07-26T23:47:38.070Z,4.80
2018-07-26T23:50:06.301Z,5.43
2018-07-26T23:52:34.472Z,5.50
2018-07-26T23:55:02.688Z,5.47
2018-07-26T23:57:30.884Z,5.33
2018-07-26T23:59:58.820Z,5.43
